Time;durP1;ratioP1;P1;durP2;ratioP2;P2;SDS_P1;SDS_P2;PMS_P1;PMS_P2;Temp;Humidity;BMP_temperature;BMP_pressure;BME280_temperature;BME280_humidity;BME280_pressure;Samples;Min_cycle;Max_cycle;Signal;HPM_P1;HPM_P2
2023/10/30 00:01:51;;;;;;;5.15;1.25;;;;;;;;;;5027168;28;20044;-81
2023/10/30 00:04:18;;;;;;;3.50;1.08;;;;;;;;;;5045301;28;20033;-81
2023/10/30 00:06:44;;;;;;;9.70;1.48;;;;;;;;;;5031619;28;20123;-81
2023/10/30 00:09:10;;;;;;;4.13;1.08;;;;;;;;;;5062621;28;20075;-80
2023/10/30 00:11:36;;;;;;;7.32;2.58;;;;;;;;;;5060044;28;20033;-82
2023/10/30 00:14:04;;;;;;;8.98;1.42;;;;;;;;;;5028568;28;20076;-80
2023/10/30 00:16:33;;;;;;;7.57;1.95;;;;;;;;;;5027488;28;20040;-81
2023/10/30 00:19:02;;;;;;;7.88;1.30;;;;;;;;;;5058052;28;20045;-80
2023/10/30 00:21:28;;;;;;;6.43;1.17;;;;;;;;;;5063251;28;20118;-80
2023/10/30 00:23:54;;;;;;;8.82;1.27;;;;;;;;;;5059696;28;20244;-81
2023/10/30 00:26:20;;;;;;;4.20;1.50;;;;;;;;;;5045232;28;20510;-81
2023/10/30 00:28:46;;;;;;;6.20;1.60;;;;;;;;;;5057411;28;20055;-81
2023/10/30 00:31:12;;;;;;;5.60;1.15;;;;;;;;;;5064548;28;20043;-81
2023/10/30 00:33:38;;;;;;;3.72;1.33;;;;;;;;;;5038309;28;20119;-82
2023/10/30 00:36:05;;;;;;;5.53;1.92;;;;;;;;;;5048346;28;20051;-82
2023/10/30 00:38:31;;;;;;;5.68;1.80;;;;;;;;;;5050171;28;20559;-82
2023/10/30 00:40:57;;;;;;;9.50;1.65;;;;;;;;;;5033840;28;20141;-81
2023/10/30 00:43:23;;;;;;;9.32;1.40;;;;;;;;;;5052746;28;20041;-79
2023/10/30 00:45:49;;;;;;;5.70;1.42;;;;;;;;;;5051178;28;20536;-80
2023/10/30 00:48:15;;;;;;;6.80;1.00;;;;;;;;;;5052359;28;20039;-81
2023/10/30 00:50:41;;;;;;;5.22;1.30;;;;;;;;;;5047439;28;20041;-80
2023/10/30 00:53:07;;;;;;;6.72;2.05;;;;;;;;;;5067143;28;20045;-80
2023/10/30 00:55:37;;;;;;;5.15;1.17;;;;;;;;;;5065347;28;20049;-80
2023/10/30 00:58:07;;;;;;;6.65;1.25;;;;;;;;;;5047113;28;20488;-80
2023/10/30 01:00:33;;;;;;;8.40;1.17;;;;;;;;;;5035277;28;20080;-81
2023/10/30 01:02:59;;;;;;;2.25;0.90;;;;;;;;;;5064592;28;20040;-79
2023/10/30 01:05:25;;;;;;;3.25;1.05;;;;;;;;;;5066297;28;20040;-82
2023/10/30 01:07:51;;;;;;;7.32;0.98;;;;;;;;;;5049287;28;20045;-81
2023/10/30 01:10:18;;;;;;;6.05;1.38;;;;;;;;;;5046888;28;20044;-81
2023/10/30 01:12:44;;;;;;;4.10;1.20;;;;;;;;;;5063020;28;20123;-81
2023/10/30 01:15:10;;;;;;;3.33;0.98;;;;;;;;;;5044252;28;20037;-81
2023/10/30 01:17:36;;;;;;;6.57;1.20;;;;;;;;;;5043821;28;20041;-81
2023/10/30 01:20:03;;;;;;;3.38;1.27;;;;;;;;;;5062990;28;20044;-80
2023/10/30 01:22:29;;;;;;;8.23;1.13;;;;;;;;;;5046523;28;20548;-81
2023/10/30 01:24:56;;;;;;;5.25;1.10;;;;;;;;;;5064446;28;20127;-81
2023/10/30 01:27:22;;;;;;;8.18;1.35;;;;;;;;;;5040591;28;20618;-82
2023/10/30 01:29:48;;;;;;;6.63;1.52;;;;;;;;;;5060649;28;20041;-81
2023/10/30 01:32:14;;;;;;;9.10;1.42;;;;;;;;;;5048735;28;20060;-81
2023/10/30 01:34:41;;;;;;;3.75;1.05;;;;;;;;;;5046343;28;20049;-82
2023/10/30 01:37:07;;;;;;;3.20;1.23;;;;;;;;;;5049607;28;20042;-81
2023/10/30 01:39:33;;;;;;;4.18;1.10;;;;;;;;;;5062293;28;20442;-81
2023/10/30 01:41:59;;;;;;;5.25;1.13;;;;;;;;;;5033023;28;20496;-81
2023/10/30 01:44:25;;;;;;;4.32;1.40;;;;;;;;;;5030102;28;20040;-81
2023/10/30 01:46:51;;;;;;;5.45;1.10;;;;;;;;;;5064385;28;20036;-82
2023/10/30 01:49:18;;;;;;;7.53;1.20;;;;;;;;;;5062575;28;20047;-82
2023/10/30 01:51:44;;;;;;;1.52;1.15;;;;;;;;;;5047602;28;20036;-81
2023/10/30 01:54:10;;;;;;;2.35;1.20;;;;;;;;;;5052572;28;20511;-81
2023/10/30 01:56:36;;;;;;;0.85;0.75;;;;;;;;;;5046204;28;20044;-81
2023/10/30 01:59:02;;;;;;;3.40;1.25;;;;;;;;;;5063485;28;20043;-81
2023/10/30 02:01:29;;;;;;;3.25;1.10;;;;;;;;;;5066042;28;20044;-82
2023/10/30 02:03:56;;;;;;;4.72;1.08;;;;;;;;;;5061311;28;20090;-82
2023/10/30 02:06:22;;;;;;;5.05;1.10;;;;;;;;;;5063292;28;20051;-82
2023/10/30 02:08:49;;;;;;;3.97;1.27;;;;;;;;;;5048288;28;20035;-82
2023/10/30 02:11:15;;;;;;;2.28;0.98;;;;;;;;;;5063598;28;20036;-79
2023/10/30 02:13:41;;;;;;;4.22;1.70;;;;;;;;;;5062294;28;20037;-81
2023/10/30 02:16:07;;;;;;;4.20;1.20;;;;;;;;;;5063955;28;20861;-82
2023/10/30 02:18:33;;;;;;;3.80;1.35;;;;;;;;;;5043942;28;20055;-80
2023/10/30 02:20:59;;;;;;;5.75;1.77;;;;;;;;;;5046440;28;20512;-80
2023/10/30 02:23:25;;;;;;;2.03;1.17;;;;;;;;;;5064086;28;20097;-80
2023/10/30 02:25:51;;;;;;;6.63;1.80;;;;;;;;;;5042871;28;20036;-80
2023/10/30 02:28:17;;;;;;;2.55;1.33;;;;;;;;;;5033712;28;20708;-79
2023/10/30 02:30:43;;;;;;;5.82;1.20;;;;;;;;;;5030831;28;20078;-79
2023/10/30 02:33:09;;;;;;;4.35;1.40;;;;;;;;;;5046913;28;20041;-80
2023/10/30 02:35:36;;;;;;;4.78;1.63;;;;;;;;;;5031625;28;20043;-80
2023/10/30 02:38:02;;;;;;;3.00;1.48;;;;;;;;;;5062902;28;20162;-81
2023/10/30 02:40:29;;;;;;;3.65;1.40;;;;;;;;;;5044346;28;20036;-80
2023/10/30 02:42:55;;;;;;;3.78;1.58;;;;;;;;;;5047078;28;20036;-80
2023/10/30 02:45:21;;;;;;;3.28;1.65;;;;;;;;;;5048612;28;20370;-80
2023/10/30 02:47:47;;;;;;;5.75;1.35;;;;;;;;;;5045256;28;20383;-81
2023/10/30 02:50:15;;;;;;;4.43;2.47;;;;;;;;;;5061233;28;20673;-81
2023/10/30 02:52:41;;;;;;;8.88;1.70;;;;;;;;;;5029707;28;20079;-81
2023/10/30 02:55:07;;;;;;;6.72;1.60;;;;;;;;;;5044282;28;20056;-81
2023/10/30 02:57:34;;;;;;;9.15;1.77;;;;;;;;;;5043026;28;20780;-80
2023/10/30 03:00:00;;;;;;;4.22;1.63;;;;;;;;;;5043901;28;20553;-80
2023/10/30 03:02:27;;;;;;;2.72;1.33;;;;;;;;;;5062272;28;20098;-82
2023/10/30 03:04:53;;;;;;;3.45;1.70;;;;;;;;;;5044782;28;20037;-81
2023/10/30 03:07:19;;;;;;;5.43;1.63;;;;;;;;;;5041657;28;21256;-80
2023/10/30 03:09:45;;;;;;;9.35;2.13;;;;;;;;;;5045873;28;20081;-81
2023/10/30 03:12:12;;;;;;;6.60;2.05;;;;;;;;;;5062244;28;20041;-79
2023/10/30 03:14:38;;;;;;;2.70;1.25;;;;;;;;;;5046604;28;20047;-82
2023/10/30 03:17:05;;;;;;;6.97;2.40;;;;;;;;;;5046471;28;20138;-82
2023/10/30 03:19:32;;;;;;;10.23;2.00;;;;;;;;;;5060414;28;20036;-81
2023/10/30 03:21:58;;;;;;;3.47;1.67;;;;;;;;;;5059144;28;20502;-82
2023/10/30 03:24:24;;;;;;;8.48;2.13;;;;;;;;;;5043141;28;20048;-82
2023/10/30 03:26:51;;;;;;;4.35;1.50;;;;;;;;;;5061292;28;20050;-81
2023/10/30 03:29:17;;;;;;;5.18;2.10;;;;;;;;;;5062570;28;20068;-81
2023/10/30 03:31:43;;;;;;;11.93;2.22;;;;;;;;;;5028491;28;20040;-80
2023/10/30 03:34:09;;;;;;;10.50;2.13;;;;;;;;;;5043246;28;20567;-81
2023/10/30 03:36:35;;;;;;;10.55;2.45;;;;;;;;;;5059386;28;20040;-80
2023/10/30 03:39:01;;;;;;;6.97;2.28;;;;;;;;;;5046460;28;20032;-83
2023/10/30 03:41:28;;;;;;;12.52;1.75;;;;;;;;;;5046521;28;20051;-80
2023/10/30 03:43:54;;;;;;;5.43;2.50;;;;;;;;;;5037994;28;20032;-81
2023/10/30 03:46:20;;;;;;;6.97;1.33;;;;;;;;;;5026904;28;20120;-81
2023/10/30 03:48:46;;;;;;;10.20;2.13;;;;;;;;;;5044289;28;20044;-80
2023/10/30 03:51:12;;;;;;;11.32;2.13;;;;;;;;;;5059984;28;20049;-81
2023/10/30 03:53:38;;;;;;;8.98;1.98;;;;;;;;;;5043557;28;20448;-81
2023/10/30 03:56:06;;;;;;;6.50;1.65;;;;;;;;;;5045013;28;20124;-81
2023/10/30 03:58:32;;;;;;;8.10;1.80;;;;;;;;;;5061939;28;20048;-82
2023/10/30 04:01:04;;;;;;;6.38;1.80;;;;;;;;;;5036097;28;20095;-80
2023/10/30 04:03:30;;;;;;;11.60;1.85;;;;;;;;;;5041145;28;20040;-80
2023/10/30 04:06:00;;;;;;;8.48;1.90;;;;;;;;;;5058241;28;20036;-80
2023/10/30 04:08:26;;;;;;;11.48;1.95;;;;;;;;;;5045720;28;20484;-80
2023/10/30 04:10:52;;;;;;;5.50;1.92;;;;;;;;;;5044812;28;20036;-80
2023/10/30 04:13:18;;;;;;;11.02;1.88;;;;;;;;;;5038355;28;20032;-80
2023/10/30 04:15:46;;;;;;;7.65;1.73;;;;;;;;;;5062644;28;20042;-80
2023/10/30 04:18:12;;;;;;;5.05;2.35;;;;;;;;;;5029176;28;20048;-80
2023/10/30 04:20:38;;;;;;;11.02;2.10;;;;;;;;;;5061600;28;20508;-79
2023/10/30 04:23:04;;;;;;;8.63;2.10;;;;;;;;;;5059548;28;20036;-80
2023/10/30 04:25:30;;;;;;;13.48;2.97;;;;;;;;;;5043168;28;20391;-80
2023/10/30 04:27:56;;;;;;;8.57;2.00;;;;;;;;;;5061228;28;20029;-81
2023/10/30 04:30:22;;;;;;;9.75;1.70;;;;;;;;;;5060266;28;20052;-81
2023/10/30 04:32:48;;;;;;;8.60;1.63;;;;;;;;;;5061042;28;20066;-81
2023/10/30 04:35:14;;;;;;;8.43;1.55;;;;;;;;;;5045665;28;20040;-81
2023/10/30 04:37:40;;;;;;;12.35;2.15;;;;;;;;;;5044256;28;20136;-81
2023/10/30 04:40:07;;;;;;;10.90;2.05;;;;;;;;;;5061882;28;20045;-81
2023/10/30 04:42:33;;;;;;;8.73;1.90;;;;;;;;;;5047091;28;20098;-81
2023/10/30 04:44:59;;;;;;;10.93;2.20;;;;;;;;;;5043655;28;20079;-81
2023/10/30 04:47:25;;;;;;;7.53;1.50;;;;;;;;;;5027407;28;20029;-81
2023/10/30 04:49:51;;;;;;;11.50;2.38;;;;;;;;;;5028963;28;20326;-80
2023/10/30 04:52:17;;;;;;;9.82;2.13;;;;;;;;;;5046611;28;21264;-80
2023/10/30 04:54:43;;;;;;;8.75;1.58;;;;;;;;;;5029538;28;20066;-80
2023/10/30 04:57:09;;;;;;;7.93;1.98;;;;;;;;;;5044521;28;20098;-81
2023/10/30 04:59:35;;;;;;;7.55;2.75;;;;;;;;;;5045274;28;20075;-80
2023/10/30 05:02:01;;;;;;;8.98;2.33;;;;;;;;;;5062362;28;20040;-81
2023/10/30 05:04:27;;;;;;;9.95;1.98;;;;;;;;;;5047895;28;20490;-81
2023/10/30 05:06:54;;;;;;;10.98;1.90;;;;;;;;;;5050340;28;20045;-81
2023/10/30 05:09:20;;;;;;;5.57;1.80;;;;;;;;;;5061747;28;20033;-81
2023/10/30 05:11:46;;;;;;;10.00;2.08;;;;;;;;;;5031488;28;20119;-82
2023/10/30 05:14:13;;;;;;;7.72;1.85;;;;;;;;;;5056613;28;20048;-83
2023/10/30 05:16:39;;;;;;;8.95;1.67;;;;;;;;;;5062629;28;20131;-82
2023/10/30 05:19:05;;;;;;;7.43;2.00;;;;;;;;;;5067498;28;20440;-82
2023/10/30 05:21:32;;;;;;;10.98;2.00;;;;;;;;;;5047333;28;20455;-81
2023/10/30 05:23:58;;;;;;;6.65;1.52;;;;;;;;;;5041373;28;20040;-83
2023/10/30 05:26:24;;;;;;;9.55;2.72;;;;;;;;;;5066609;28;20415;-82
2023/10/30 05:28:50;;;;;;;8.55;1.48;;;;;;;;;;5049451;28;20039;-80
2023/10/30 05:31:16;;;;;;;6.38;2.05;;;;;;;;;;5046499;28;20163;-82
2023/10/30 05:33:42;;;;;;;14.05;2.88;;;;;;;;;;5069481;28;20063;-82
2023/10/30 05:36:10;;;;;;;12.02;1.85;;;;;;;;;;5067320;28;20045;-83
2023/10/30 05:38:36;;;;;;;10.70;2.65;;;;;;;;;;5043501;28;20135;-82
2023/10/30 05:41:03;;;;;;;8.60;1.88;;;;;;;;;;5068247;28;20044;-82
2023/10/30 05:43:29;;;;;;;10.30;1.75;;;;;;;;;;5054946;28;20401;-83
2023/10/30 05:45:56;;;;;;;15.20;2.97;;;;;;;;;;5070713;28;20068;-82
2023/10/30 05:48:22;;;;;;;12.00;2.20;;;;;;;;;;5053922;28;20047;-81
2023/10/30 05:50:48;;;;;;;9.38;1.65;;;;;;;;;;5029612;28;20037;-82
2023/10/30 05:53:14;;;;;;;6.53;1.60;;;;;;;;;;5051421;28;20068;-82
2023/10/30 05:55:40;;;;;;;10.98;2.38;;;;;;;;;;5052995;28;20408;-82
2023/10/30 05:58:06;;;;;;;12.32;2.00;;;;;;;;;;5052304;28;20089;-82
2023/10/30 06:00:32;;;;;;;9.95;2.17;;;;;;;;;;5049561;28;20077;-83
2023/10/30 06:02:58;;;;;;;10.05;1.95;;;;;;;;;;5055183;28;20143;-82
2023/10/30 06:05:25;;;;;;;18.23;2.28;;;;;;;;;;5067205;28;20040;-82
2023/10/30 06:07:51;;;;;;;11.32;2.10;;;;;;;;;;5066640;28;20120;-82
2023/10/30 06:10:19;;;;;;;15.40;2.25;;;;;;;;;;5045103;28;20090;-83
2023/10/30 06:12:47;;;;;;;9.68;2.30;;;;;;;;;;5050167;28;20127;-82
2023/10/30 06:15:13;;;;;;;10.48;2.40;;;;;;;;;;5048892;28;20045;-82
2023/10/30 06:17:39;;;;;;;12.50;2.35;;;;;;;;;;5044916;28;20140;-83
2023/10/30 06:20:09;;;;;;;5.13;1.58;;;;;;;;;;5052212;28;20440;-82
2023/10/30 06:22:35;;;;;;;11.45;2.17;;;;;;;;;;5065329;28;20571;-80
2023/10/30 06:25:01;;;;;;;6.28;2.83;;;;;;;;;;5050278;28;20036;-81
2023/10/30 06:27:27;;;;;;;11.98;2.33;;;;;;;;;;5067731;28;20070;-82
2023/10/30 06:29:54;;;;;;;12.73;3.13;;;;;;;;;;5033304;28;21647;-82
2023/10/30 06:32:20;;;;;;;11.43;2.38;;;;;;;;;;5029785;28;20036;-82
2023/10/30 06:34:46;;;;;;;13.40;2.22;;;;;;;;;;5049312;28;20068;-82
2023/10/30 06:37:12;;;;;;;12.43;2.30;;;;;;;;;;5067019;28;20109;-82
2023/10/30 06:39:39;;;;;;;14.13;1.70;;;;;;;;;;5043999;28;20051;-82
2023/10/30 06:42:05;;;;;;;13.63;2.28;;;;;;;;;;5048688;28;20040;-81
2023/10/30 06:44:31;;;;;;;12.95;2.38;;;;;;;;;;5062956;28;20053;-81
2023/10/30 06:46:58;;;;;;;15.85;2.03;;;;;;;;;;5063496;28;20086;-83
2023/10/30 06:49:25;;;;;;;18.02;2.53;;;;;;;;;;5045811;28;20048;-83
2023/10/30 06:51:51;;;;;;;8.13;2.28;;;;;;;;;;5063738;28;20047;-82
2023/10/30 06:54:17;;;;;;;11.88;2.78;;;;;;;;;;5046714;28;20064;-83
2023/10/30 06:56:43;;;;;;;18.08;4.00;;;;;;;;;;5045704;28;20113;-81
2023/10/30 06:59:12;;;;;;;13.30;2.78;;;;;;;;;;5032710;28;20137;-81
2023/10/30 07:01:43;;;;;;;10.82;1.75;;;;;;;;;;5047985;28;20050;-80
2023/10/30 07:04:10;;;;;;;11.32;2.80;;;;;;;;;;5047843;28;20036;-82
2023/10/30 07:06:37;;;;;;;12.00;2.75;;;;;;;;;;5045868;28;20563;-82
2023/10/30 07:09:06;;;;;;;13.75;2.35;;;;;;;;;;5058065;28;20154;-82
2023/10/30 07:11:33;;;;;;;9.63;2.20;;;;;;;;;;5047983;28;20716;-82
2023/10/30 07:14:01;;;;;;;12.30;2.83;;;;;;;;;;5040031;28;20047;-81
2023/10/30 07:16:28;;;;;;;8.95;2.28;;;;;;;;;;5033822;28;20471;-81
2023/10/30 07:18:55;;;;;;;14.55;2.10;;;;;;;;;;5049265;28;20870;-88
2023/10/30 07:21:21;;;;;;;7.60;1.73;;;;;;;;;;5065135;28;20071;-86
2023/10/30 07:23:47;;;;;;;9.30;2.28;;;;;;;;;;5049799;28;20522;-87
2023/10/30 07:26:14;;;;;;;9.20;2.08;;;;;;;;;;5054707;28;20590;-84
2023/10/30 07:28:40;;;;;;;14.30;2.75;;;;;;;;;;5066883;28;20517;-85
2023/10/30 07:31:06;;;;;;;21.33;3.53;;;;;;;;;;5046996;28;20036;-88
2023/10/30 07:33:32;;;;;;;12.65;2.47;;;;;;;;;;5044572;28;20040;-88
2023/10/30 07:36:01;;;;;;;14.07;2.60;;;;;;;;;;5048259;28;23701;-88
2023/10/30 07:38:27;;;;;;;8.30;1.73;;;;;;;;;;5049542;28;20450;-90
2023/10/30 07:40:54;;;;;;;9.85;2.25;;;;;;;;;;5066793;28;20101;-87
2023/10/30 07:43:21;;;;;;;12.57;2.05;;;;;;;;;;5050213;28;20109;-87
2023/10/30 07:45:47;;;;;;;13.40;2.95;;;;;;;;;;5068748;28;20127;-87
2023/10/30 07:48:13;;;;;;;59.17;6.40;;;;;;;;;;5069159;28;20044;-88
2023/10/30 07:50:40;;;;;;;429.73;44.33;;;;;;;;;;5031524;28;20037;-87
2023/10/30 07:53:06;;;;;;;27.98;3.67;;;;;;;;;;5081882;28;20040;-87
2023/10/30 07:55:33;;;;;;;272.25;27.13;;;;;;;;;;5049186;28;20134;-86
2023/10/30 07:57:59;;;;;;;78.88;8.85;;;;;;;;;;5035117;28;20119;-88
2023/10/30 08:00:25;;;;;;;172.25;17.90;;;;;;;;;;5050711;28;20037;-87
2023/10/30 08:02:51;;;;;;;34.72;3.60;;;;;;;;;;5051050;28;20064;-87
2023/10/30 08:05:17;;;;;;;9.98;2.47;;;;;;;;;;5053634;28;20045;-87
2023/10/30 08:07:44;;;;;;;12.65;2.67;;;;;;;;;;5037495;28;20510;-87
2023/10/30 08:10:11;;;;;;;10.15;2.28;;;;;;;;;;5065783;28;20472;-87
2023/10/30 08:12:38;;;;;;;12.30;2.60;;;;;;;;;;5065576;28;20037;-88
2023/10/30 08:15:04;;;;;;;9.73;2.50;;;;;;;;;;5050024;28;20435;-86
2023/10/30 08:17:30;;;;;;;11.30;2.10;;;;;;;;;;5052204;28;20555;-86
2023/10/30 08:19:56;;;;;;;59.15;8.90;;;;;;;;;;5066625;28;20043;-88
2023/10/30 08:22:23;;;;;;;15.25;2.15;;;;;;;;;;5066446;28;20088;-88
2023/10/30 08:24:49;;;;;;;28.50;4.82;;;;;;;;;;5068046;28;20048;-85
2023/10/30 08:27:15;;;;;;;11.90;2.35;;;;;;;;;;5067824;28;20117;-86
2023/10/30 08:29:41;;;;;;;47.28;7.30;;;;;;;;;;5051823;28;20037;-86
2023/10/30 08:32:08;;;;;;;20.10;2.90;;;;;;;;;;5051655;28;20115;-86
2023/10/30 08:34:34;;;;;;;95.60;11.90;;;;;;;;;;5065524;28;20044;-87
2023/10/30 08:37:00;;;;;;;426.48;45.13;;;;;;;;;;5052801;28;20037;-87
2023/10/30 08:39:26;;;;;;;225.20;28.25;;;;;;;;;;5050765;28;20047;-85
2023/10/30 08:41:52;;;;;;;525.40;51.78;;;;;;;;;;5053933;28;20076;-85
2023/10/30 08:44:18;;;;;;;238.50;25.00;;;;;;;;;;5051683;28;20429;-85
2023/10/30 08:46:44;;;;;;;182.63;19.55;;;;;;;;;;5048881;28;20044;-86
2023/10/30 08:49:11;;;;;;;49.15;5.95;;;;;;;;;;5049551;28;20131;-86
2023/10/30 08:51:44;;;;;;;24.23;3.53;;;;;;;;;;5067880;28;20040;-87
2023/10/30 08:54:10;;;;;;;17.55;3.67;;;;;;;;;;5067035;28;20068;-86
2023/10/30 08:56:36;;;;;;;18.25;3.03;;;;;;;;;;5037137;28;20040;-86
2023/10/30 08:59:06;;;;;;;6.28;1.90;;;;;;;;;;5072395;28;20385;-85
2023/10/30 09:01:32;;;;;;;12.80;2.10;;;;;;;;;;5056167;28;20052;-86
2023/10/30 09:03:59;;;;;;;15.10;2.25;;;;;;;;;;5068885;28;20515;-86
2023/10/30 09:06:26;;;;;;;11.73;2.38;;;;;;;;;;5071521;28;20126;-86
2023/10/30 09:08:53;;;;;;;9.45;2.03;;;;;;;;;;5039329;28;20150;-86
2023/10/30 09:11:19;;;;;;;11.15;2.13;;;;;;;;;;5055894;28;20033;-85
2023/10/30 09:13:45;;;;;;;10.82;1.90;;;;;;;;;;5053155;28;20097;-86
2023/10/30 09:16:11;;;;;;;8.07;1.92;;;;;;;;;;5072286;28;20040;-86
2023/10/30 09:18:38;;;;;;;17.27;2.45;;;;;;;;;;5052600;28;20095;-87
2023/10/30 09:21:04;;;;;;;9.63;2.38;;;;;;;;;;5037242;28;20045;-84
2023/10/30 09:23:30;;;;;;;37.10;4.00;;;;;;;;;;5047675;28;20123;-85
2023/10/30 09:25:56;;;;;;;55.58;5.25;;;;;;;;;;5056237;28;20065;-84
2023/10/30 09:28:22;;;;;;;22.48;2.97;;;;;;;;;;5033434;28;20055;-85
2023/10/30 09:30:49;;;;;;;43.60;4.43;;;;;;;;;;5056565;28;20139;-86
2023/10/30 09:33:15;;;;;;;19.70;2.25;;;;;;;;;;5036097;28;20127;-85
2023/10/30 09:35:42;;;;;;;93.32;9.65;;;;;;;;;;5051139;28;20566;-84
2023/10/30 09:38:09;;;;;;;167.20;19.00;;;;;;;;;;5051208;28;20406;-84
2023/10/30 09:40:35;;;;;;;159.23;16.00;;;;;;;;;;5067961;28;20044;-84
2023/10/30 09:43:09;;;;;;;517.10;54.35;;;;;;;;;;5071390;28;20037;-84
2023/10/30 09:45:36;;;;;;;707.97;74.15;;;;;;;;;;5087083;28;20488;-85
2023/10/30 09:48:03;;;;;;;395.02;42.28;;;;;;;;;;5054221;28;20041;-86
2023/10/30 09:50:31;;;;;;;669.78;74.40;;;;;;;;;;5071200;28;20067;-84
2023/10/30 09:52:59;;;;;;;1871.25;204.05;;;;;;;;;;5067501;28;20107;-83
2023/10/30 09:55:26;;;;;;;427.55;46.03;;;;;;;;;;5052629;28;20110;-83
2023/10/30 09:57:52;;;;;;;428.13;46.33;;;;;;;;;;5036057;28;20079;-83
2023/10/30 10:00:19;;;;;;;159.45;13.82;;;;;;;;;;5052008;28;20181;-84
2023/10/30 10:02:46;;;;;;;87.53;7.43;;;;;;;;;;5053171;28;20051;-82
2023/10/30 10:05:13;;;;;;;90.47;5.80;;;;;;;;;;5069947;28;20044;-84
2023/10/30 10:07:40;;;;;;;82.05;6.40;;;;;;;;;;5047969;28;20083;-83
2023/10/30 10:10:08;;;;;;;82.28;7.95;;;;;;;;;;5053259;28;20037;-83
2023/10/30 10:12:34;;;;;;;14.30;2.67;;;;;;;;;;5051949;28;20036;-83
2023/10/30 10:15:06;;;;;;;24.38;3.05;;;;;;;;;;5050947;28;20067;-82
2023/10/30 10:17:32;;;;;;;16.95;2.40;;;;;;;;;;5044030;28;20044;-83
2023/10/30 10:20:03;;;;;;;15.52;2.78;;;;;;;;;;5050734;28;20326;-84
2023/10/30 10:22:33;;;;;;;244.82;17.00;;;;;;;;;;5048144;28;20396;-84
2023/10/30 10:25:02;;;;;;;13.63;2.15;;;;;;;;;;5065648;28;20484;-84
2023/10/30 10:27:28;;;;;;;9.30;2.35;;;;;;;;;;5052202;28;20055;-83
2023/10/30 10:29:55;;;;;;;10.93;1.85;;;;;;;;;;5068184;28;20046;-82
2023/10/30 10:32:28;;;;;;;10.40;2.28;;;;;;;;;;5053707;28;20037;-82
2023/10/30 10:34:58;;;;;;;5.70;1.75;;;;;;;;;;5051042;28;20075;-80
2023/10/30 10:37:24;;;;;;;11.88;2.17;;;;;;;;;;5051494;28;20040;-83
2023/10/30 10:39:51;;;;;;;11.65;1.90;;;;;;;;;;5050832;28;20558;-82
2023/10/30 10:42:18;;;;;;;12.07;2.10;;;;;;;;;;5069118;28;20036;-82
2023/10/30 10:44:45;;;;;;;11.15;1.88;;;;;;;;;;5068426;28;20121;-82
2023/10/30 10:47:11;;;;;;;8.70;2.22;;;;;;;;;;5049147;28;20078;-83
2023/10/30 10:49:37;;;;;;;13.57;2.42;;;;;;;;;;5034605;28;20488;-84
2023/10/30 10:52:06;;;;;;;10.57;2.63;;;;;;;;;;5052732;28;20040;-83
2023/10/30 10:54:35;;;;;;;9.82;2.00;;;;;;;;;;5065671;28;21441;-83
2023/10/30 10:57:03;;;;;;;10.55;1.85;;;;;;;;;;5050611;28;20075;-85
2023/10/30 10:59:30;;;;;;;7.65;1.70;;;;;;;;;;5051857;28;20040;-85
2023/10/30 11:01:57;;;;;;;13.65;2.53;;;;;;;;;;5049185;28;20082;-84
2023/10/30 11:04:23;;;;;;;9.35;2.03;;;;;;;;;;5048604;28;20083;-83
2023/10/30 11:06:57;;;;;;;6.90;1.67;;;;;;;;;;5067219;28;20045;-83
2023/10/30 11:09:25;;;;;;;13.93;3.10;;;;;;;;;;5049521;28;20109;-82
2023/10/30 11:12:10;;;;;;;12.40;2.60;;;;;;;;;;5047735;28;20037;-84
2023/10/30 11:14:43;;;;;;;8.45;1.90;;;;;;;;;;5063043;28;20051;-83
2023/10/30 11:17:10;;;;;;;11.70;2.13;;;;;;;;;;5046961;28;20044;-83
2023/10/30 11:19:39;;;;;;;8.98;1.50;;;;;;;;;;5049999;28;20044;-83
2023/10/30 11:24:54;;;;;;;10.85;2.35;;;;;;;;;;5062236;28;20044;-85
2023/10/30 11:27:26;;;;;;;13.32;2.47;;;;;;;;;;5046344;28;20076;-84
2023/10/30 11:29:57;;;;;;;16.75;2.78;;;;;;;;;;5044368;28;20080;-86
2023/10/30 11:32:28;;;;;;;11.82;2.75;;;;;;;;;;5033694;28;20043;-83
2023/10/30 11:34:54;;;;;;;10.27;1.92;;;;;;;;;;5042135;28;20049;-85
2023/10/30 11:37:25;;;;;;;9.15;1.83;;;;;;;;;;5064271;28;20482;-83
2023/10/30 11:39:54;;;;;;;7.05;1.67;;;;;;;;;;5044204;28;20442;-84
2023/10/30 11:42:24;;;;;;;7.88;2.33;;;;;;;;;;5063824;28;20059;-85
2023/10/30 11:44:50;;;;;;;10.45;2.03;;;;;;;;;;5065180;28;20079;-84
2023/10/30 11:47:20;;;;;;;8.30;1.80;;;;;;;;;;5050403;28;20034;-85
2023/10/30 11:49:46;;;;;;;12.98;2.35;;;;;;;;;;5045309;28;20037;-84
2023/10/30 11:52:13;;;;;;;10.52;2.17;;;;;;;;;;5029189;28;20430;-86
2023/10/30 11:54:49;;;;;;;8.27;2.47;;;;;;;;;;5044003;28;20056;-84
2023/10/30 11:57:15;;;;;;;9.40;2.00;;;;;;;;;;5063359;28;20044;-84
2023/10/30 11:59:41;;;;;;;15.25;2.25;;;;;;;;;;5065825;28;20040;-83
2023/10/30 12:02:08;;;;;;;9.10;2.00;;;;;;;;;;5033639;28;20069;-85
2023/10/30 12:04:34;;;;;;;10.60;2.63;;;;;;;;;;5033645;28;20496;-84
2023/10/30 12:07:00;;;;;;;9.80;1.95;;;;;;;;;;5049448;28;20059;-83
2023/10/30 12:09:26;;;;;;;9.35;2.35;;;;;;;;;;5062844;28;20075;-85
2023/10/30 12:11:55;;;;;;;11.02;1.75;;;;;;;;;;5043975;28;20091;-85
2023/10/30 12:14:22;;;;;;;5.95;1.55;;;;;;;;;;5049683;28;20066;-90
2023/10/30 12:16:50;;;;;;;12.13;1.70;;;;;;;;;;5063053;28;20488;-88
2023/10/30 12:19:22;;;;;;;10.25;2.28;;;;;;;;;;5047448;28;20063;-88
2023/10/30 12:21:49;;;;;;;11.70;1.98;;;;;;;;;;5051846;28;20037;-86
2023/10/30 12:24:16;;;;;;;11.65;2.00;;;;;;;;;;5051639;28;20515;-88
2023/10/30 12:26:42;;;;;;;10.05;1.55;;;;;;;;;;5075710;28;20491;-89
2023/10/30 12:29:08;;;;;;;10.60;2.30;;;;;;;;;;5072497;28;20037;-87
2023/10/30 12:31:35;;;;;;;6.45;1.70;;;;;;;;;;5071407;28;20028;-87
2023/10/30 12:34:22;;;;;;;13.02;1.95;;;;;;;;;;5058207;28;20077;-88
2023/10/30 12:36:48;;;;;;;15.93;1.92;;;;;;;;;;5047452;28;20106;-90
2023/10/30 12:39:18;;;;;;;16.45;2.75;;;;;;;;;;5075223;28;20398;-89
2023/10/30 12:41:46;;;;;;;8.00;2.20;;;;;;;;;;5071543;28;20041;-90
2023/10/30 12:44:15;;;;;;;9.32;2.15;;;;;;;;;;5077308;28;20522;-89
2023/10/30 12:46:41;;;;;;;11.65;2.30;;;;;;;;;;5065090;28;20040;-91
2023/10/30 12:49:07;;;;;;;8.38;2.05;;;;;;;;;;5059799;28;20033;-89
2023/10/30 12:51:34;;;;;;;14.10;3.05;;;;;;;;;;5075886;28;20072;-90
2023/10/30 12:54:00;;;;;;;11.90;2.13;;;;;;;;;;5075195;28;20055;-88
2023/10/30 12:56:26;;;;;;;9.15;2.00;;;;;;;;;;5059350;28;20041;-87
2023/10/30 12:58:52;;;;;;;12.20;2.10;;;;;;;;;;5058635;28;22054;-88
2023/10/30 13:01:18;;;;;;;15.10;1.88;;;;;;;;;;5057168;28;20120;-87
2023/10/30 13:03:44;;;;;;;9.15;1.75;;;;;;;;;;5054040;28;20037;-89
2023/10/30 13:06:11;;;;;;;11.40;2.60;;;;;;;;;;5057085;28;20459;-89
2023/10/30 13:08:37;;;;;;;13.05;2.50;;;;;;;;;;5076823;28;20037;-89
2023/10/30 13:11:03;;;;;;;14.02;2.22;;;;;;;;;;5033999;28;20552;-88
2023/10/30 13:13:30;;;;;;;10.35;2.05;;;;;;;;;;5060085;28;20412;-85
2023/10/30 13:15:56;;;;;;;14.23;2.63;;;;;;;;;;5039035;28;20189;-83
2023/10/30 13:18:22;;;;;;;11.02;1.73;;;;;;;;;;5057115;28;20044;-84
2023/10/30 13:20:48;;;;;;;12.20;2.10;;;;;;;;;;5072619;28;20125;-83
2023/10/30 13:23:14;;;;;;;7.95;1.70;;;;;;;;;;5056226;28;20029;-83
2023/10/30 13:25:41;;;;;;;8.48;1.70;;;;;;;;;;5052526;28;20059;-84
2023/10/30 13:28:08;;;;;;;10.48;2.35;;;;;;;;;;5048901;28;20055;-84
2023/10/30 13:30:34;;;;;;;12.77;2.40;;;;;;;;;;5068888;28;20040;-84
2023/10/30 13:33:03;;;;;;;11.57;2.47;;;;;;;;;;5051829;28;20064;-84
2023/10/30 13:35:29;;;;;;;12.00;2.30;;;;;;;;;;5055768;28;20040;-84
2023/10/30 13:37:55;;;;;;;10.38;2.30;;;;;;;;;;5052259;28;20051;-83
2023/10/30 13:40:21;;;;;;;13.40;2.15;;;;;;;;;;5071230;28;20042;-84
2023/10/30 13:42:47;;;;;;;8.02;1.75;;;;;;;;;;5052014;28;20094;-85
2023/10/30 13:45:13;;;;;;;11.40;2.35;;;;;;;;;;5053169;28;20040;-84
2023/10/30 13:47:39;;;;;;;7.10;1.80;;;;;;;;;;5052254;28;20075;-84
2023/10/30 13:50:06;;;;;;;10.20;2.40;;;;;;;;;;5051477;28;20057;-83
2023/10/30 13:52:32;;;;;;;11.02;2.33;;;;;;;;;;5037090;28;20036;-86
2023/10/30 13:54:58;;;;;;;7.45;2.20;;;;;;;;;;5037098;28;20068;-83
2023/10/30 13:57:24;;;;;;;11.45;2.70;;;;;;;;;;5045575;28;20094;-86
2023/10/30 13:59:50;;;;;;;16.85;2.55;;;;;;;;;;5050225;28;20040;-83
2023/10/30 14:02:16;;;;;;;12.85;2.40;;;;;;;;;;5050783;28;20037;-84
2023/10/30 14:04:43;;;;;;;10.13;2.88;;;;;;;;;;5052152;28;20496;-84
2023/10/30 14:07:10;;;;;;;11.88;2.15;;;;;;;;;;5069741;28;20065;-84
2023/10/30 14:09:36;;;;;;;13.88;2.15;;;;;;;;;;5053602;28;20504;-83
2023/10/30 14:12:02;;;;;;;13.73;2.00;;;;;;;;;;5052269;28;20373;-82
2023/10/30 14:14:28;;;;;;;18.80;3.15;;;;;;;;;;5069510;28;20138;-83
2023/10/30 14:16:54;;;;;;;8.93;2.08;;;;;;;;;;5049524;28;20037;-80
2023/10/30 14:19:20;;;;;;;10.18;2.33;;;;;;;;;;5031330;28;20127;-84
2023/10/30 14:21:46;;;;;;;8.93;2.17;;;;;;;;;;5053612;28;20036;-84
2023/10/30 14:24:13;;;;;;;14.82;2.45;;;;;;;;;;5035874;28;20496;-88
2023/10/30 14:26:39;;;;;;;11.65;1.83;;;;;;;;;;5038277;28;20044;-86
2023/10/30 14:29:06;;;;;;;11.60;1.80;;;;;;;;;;5055041;28;20040;-87
2023/10/30 14:31:32;;;;;;;14.70;2.72;;;;;;;;;;5055058;28;20120;-87
2023/10/30 14:33:58;;;;;;;11.65;1.95;;;;;;;;;;5071689;28;20060;-84
2023/10/30 14:36:24;;;;;;;14.80;2.97;;;;;;;;;;5037230;28;20072;-83